sensor_id;sensor_type;location;lat;lon;timestamp;temperature;humidity
1347;DHT22;667;48.796;9.480;2023-05-07T00:01:35;16.50;77.00
1347;DHT22;667;48.796;9.480;2023-05-07T00:04:01;16.50;77.10
1347;DHT22;667;48.796;9.480;2023-05-07T00:06:27;16.50;77.30
1347;DHT22;667;48.796;9.480;2023-05-07T00:08:54;16.50;77.30
1347;DHT22;667;48.796;9.480;2023-05-07T00:11:20;16.40;77.20
1347;DHT22;667;48.796;9.480;2023-05-07T00:13:45;16.50;77.30
1347;DHT22;667;48.796;9.480;2023-05-07T00:16:11;16.50;77.60
1347;DHT22;667;48.796;9.480;2023-05-07T00:18:37;16.50;77.60
1347;DHT22;667;48.796;9.480;2023-05-07T00:21:02;16.40;77.40
1347;DHT22;667;48.796;9.480;2023-05-07T00:23:28;16.40;77.40
1347;DHT22;667;48.796;9.480;2023-05-07T00:25:53;16.40;77.50
1347;DHT22;667;48.796;9.480;2023-05-07T00:28:19;16.40;77.70
1347;DHT22;667;48.796;9.480;2023-05-07T00:30:44;16.40;77.70
1347;DHT22;667;48.796;9.480;2023-05-07T00:33:10;16.40;77.70
1347;DHT22;667;48.796;9.480;2023-05-07T00:35:36;16.30;77.60
1347;DHT22;667;48.796;9.480;2023-05-07T00:38:01;16.40;77.80
1347;DHT22;667;48.796;9.480;2023-05-07T00:40:27;16.30;77.60
1347;DHT22;667;48.796;9.480;2023-05-07T00:42:52;16.40;77.80
1347;DHT22;667;48.796;9.480;2023-05-07T00:45:26;16.30;77.70
1347;DHT22;667;48.796;9.480;2023-05-07T00:47:54;16.30;77.80
1347;DHT22;667;48.796;9.480;2023-05-07T00:50:20;16.30;77.90
1347;DHT22;667;48.796;9.480;2023-05-07T00:52:46;16.20;77.90
1347;DHT22;667;48.796;9.480;2023-05-07T00:55:11;16.20;78.00
1347;DHT22;667;48.796;9.480;2023-05-07T00:57:40;16.20;78.20
1347;DHT22;667;48.796;9.480;2023-05-07T01:00:08;16.10;78.30
1347;DHT22;667;48.796;9.480;2023-05-07T01:02:38;16.10;78.40
1347;DHT22;667;48.796;9.480;2023-05-07T01:05:05;16.10;78.30
1347;DHT22;667;48.796;9.480;2023-05-07T01:07:33;16.10;78.40
1347;DHT22;667;48.796;9.480;2023-05-07T01:10:00;16.10;78.50
1347;DHT22;667;48.796;9.480;2023-05-07T01:12:28;16.10;78.60
1347;DHT22;667;48.796;9.480;2023-05-07T01:14:54;16.00;78.60
1347;DHT22;667;48.796;9.480;2023-05-07T01:17:20;16.00;78.80
1347;DHT22;667;48.796;9.480;2023-05-07T01:19:45;16.00;78.90
1347;DHT22;667;48.796;9.480;2023-05-07T01:22:11;15.90;78.70
1347;DHT22;667;48.796;9.480;2023-05-07T01:24:38;16.00;78.70
1347;DHT22;667;48.796;9.480;2023-05-07T01:27:04;15.90;78.70
1347;DHT22;667;48.796;9.480;2023-05-07T01:29:29;16.00;78.90
1347;DHT22;667;48.796;9.480;2023-05-07T01:32:00;15.90;78.80
1347;DHT22;667;48.796;9.480;2023-05-07T01:34:28;15.90;79.00
1347;DHT22;667;48.796;9.480;2023-05-07T01:36:55;15.80;78.90
1347;DHT22;667;48.796;9.480;2023-05-07T01:39:25;15.80;79.10
1347;DHT22;667;48.796;9.480;2023-05-07T01:41:51;15.90;79.20
1347;DHT22;667;48.796;9.480;2023-05-07T01:44:17;15.80;79.20
1347;DHT22;667;48.796;9.480;2023-05-07T01:46:44;15.80;79.30
1347;DHT22;667;48.796;9.480;2023-05-07T01:49:10;15.80;79.20
1347;DHT22;667;48.796;9.480;2023-05-07T01:51:36;15.70;79.00
1347;DHT22;667;48.796;9.480;2023-05-07T01:54:02;15.80;79.30
1347;DHT22;667;48.796;9.480;2023-05-07T01:56:27;15.70;79.20
1347;DHT22;667;48.796;9.480;2023-05-07T01:58:53;15.80;79.30
1347;DHT22;667;48.796;9.480;2023-05-07T02:01:18;15.70;79.20
1347;DHT22;667;48.796;9.480;2023-05-07T02:03:44;15.70;79.20
1347;DHT22;667;48.796;9.480;2023-05-07T02:06:10;15.70;79.30
1347;DHT22;667;48.796;9.480;2023-05-07T02:08:35;15.60;79.40
1347;DHT22;667;48.796;9.480;2023-05-07T02:11:01;15.60;79.50
1347;DHT22;667;48.796;9.480;2023-05-07T02:13:32;15.60;79.50
1347;DHT22;667;48.796;9.480;2023-05-07T02:15:58;15.60;79.50
1347;DHT22;667;48.796;9.480;2023-05-07T02:18:24;15.60;79.60
1347;DHT22;667;48.796;9.480;2023-05-07T02:20:50;15.60;79.70
1347;DHT22;667;48.796;9.480;2023-05-07T02:23:15;15.60;79.70
1347;DHT22;667;48.796;9.480;2023-05-07T02:25:41;15.70;79.60
1347;DHT22;667;48.796;9.480;2023-05-07T02:28:07;15.60;79.50
1347;DHT22;667;48.796;9.480;2023-05-07T02:30:32;15.60;79.40
1347;DHT22;667;48.796;9.480;2023-05-07T02:32:58;15.60;79.10
1347;DHT22;667;48.796;9.480;2023-05-07T02:35:24;15.60;79.10
1347;DHT22;667;48.796;9.480;2023-05-07T02:37:50;15.60;79.00
1347;DHT22;667;48.796;9.480;2023-05-07T02:40:16;15.60;78.80
1347;DHT22;667;48.796;9.480;2023-05-07T02:42:41;15.60;78.80
1347;DHT22;667;48.796;9.480;2023-05-07T02:45:07;15.50;78.60
1347;DHT22;667;48.796;9.480;2023-05-07T02:47:33;15.50;78.60
1347;DHT22;667;48.796;9.480;2023-05-07T02:49:59;15.50;78.60
1347;DHT22;667;48.796;9.480;2023-05-07T02:52:24;15.50;78.50
1347;DHT22;667;48.796;9.480;2023-05-07T02:54:50;15.40;78.50
1347;DHT22;667;48.796;9.480;2023-05-07T02:57:15;15.40;78.60
1347;DHT22;667;48.796;9.480;2023-05-07T02:59:42;15.30;78.70
1347;DHT22;667;48.796;9.480;2023-05-07T03:02:08;15.30;78.90
1347;DHT22;667;48.796;9.480;2023-05-07T03:04:33;15.30;78.90
1347;DHT22;667;48.796;9.480;2023-05-07T03:06:59;15.30;78.80
1347;DHT22;667;48.796;9.480;2023-05-07T03:09:24;15.30;78.70
1347;DHT22;667;48.796;9.480;2023-05-07T03:11:50;15.20;78.80
1347;DHT22;667;48.796;9.480;2023-05-07T03:14:15;15.20;78.80
1347;DHT22;667;48.796;9.480;2023-05-07T03:16:41;15.10;78.80
1347;DHT22;667;48.796;9.480;2023-05-07T03:19:06;15.10;79.60
1347;DHT22;667;48.796;9.480;2023-05-07T03:21:32;15.10;78.80
1347;DHT22;667;48.796;9.480;2023-05-07T03:23:59;15.10;79.10
1347;DHT22;667;48.796;9.480;2023-05-07T03:26:25;15.00;79.00
1347;DHT22;667;48.796;9.480;2023-05-07T03:28:51;15.00;79.20
1347;DHT22;667;48.796;9.480;2023-05-07T03:31:17;15.00;79.20
1347;DHT22;667;48.796;9.480;2023-05-07T03:33:53;15.00;79.00
1347;DHT22;667;48.796;9.480;2023-05-07T03:36:19;15.00;78.90
1347;DHT22;667;48.796;9.480;2023-05-07T03:38:46;15.00;79.00
1347;DHT22;667;48.796;9.480;2023-05-07T03:41:12;14.90;78.90
1347;DHT22;667;48.796;9.480;2023-05-07T03:43:37;14.90;79.10
1347;DHT22;667;48.796;9.480;2023-05-07T03:46:03;14.90;79.20
1347;DHT22;667;48.796;9.480;2023-05-07T03:48:28;15.00;79.30
1347;DHT22;667;48.796;9.480;2023-05-07T03:50:54;14.90;79.10
1347;DHT22;667;48.796;9.480;2023-05-07T03:53:19;15.00;79.00
1347;DHT22;667;48.796;9.480;2023-05-07T03:55:45;15.00;78.70
1347;DHT22;667;48.796;9.480;2023-05-07T03:58:10;14.90;78.20
1347;DHT22;667;48.796;9.480;2023-05-07T04:00:36;14.90;78.30
1347;DHT22;667;48.796;9.480;2023-05-07T04:03:05;14.80;78.30
1347;DHT22;667;48.796;9.480;2023-05-07T04:05:31;14.80;78.40
1347;DHT22;667;48.796;9.480;2023-05-07T04:08:00;14.80;78.60
1347;DHT22;667;48.796;9.480;2023-05-07T04:10:26;14.70;78.60
1347;DHT22;667;48.796;9.480;2023-05-07T04:12:53;14.70;78.90
1347;DHT22;667;48.796;9.480;2023-05-07T04:15:19;14.70;78.90
1347;DHT22;667;48.796;9.480;2023-05-07T04:17:45;14.70;79.00
1347;DHT22;667;48.796;9.480;2023-05-07T04:20:14;14.70;79.20
1347;DHT22;667;48.796;9.480;2023-05-07T04:22:40;14.70;79.00
1347;DHT22;667;48.796;9.480;2023-05-07T04:25:06;14.70;79.10
1347;DHT22;667;48.796;9.480;2023-05-07T04:27:33;14.70;79.20
1347;DHT22;667;48.796;9.480;2023-05-07T04:29:58;14.70;79.20
1347;DHT22;667;48.796;9.480;2023-05-07T04:32:26;14.70;79.20
1347;DHT22;667;48.796;9.480;2023-05-07T04:34:52;14.70;79.20
1347;DHT22;667;48.796;9.480;2023-05-07T04:37:17;14.60;79.30
1347;DHT22;667;48.796;9.480;2023-05-07T04:39:43;14.70;79.20
1347;DHT22;667;48.796;9.480;2023-05-07T04:42:09;14.70;79.50
1347;DHT22;667;48.796;9.480;2023-05-07T04:44:35;14.70;79.70
1347;DHT22;667;48.796;9.480;2023-05-07T04:47:02;14.60;79.80
1347;DHT22;667;48.796;9.480;2023-05-07T04:49:28;14.60;79.90
1347;DHT22;667;48.796;9.480;2023-05-07T04:51:53;14.70;80.10
1347;DHT22;667;48.796;9.480;2023-05-07T04:54:19;14.70;80.10
1347;DHT22;667;48.796;9.480;2023-05-07T04:56:44;14.70;80.20
1347;DHT22;667;48.796;9.480;2023-05-07T04:59:10;14.80;80.50
1347;DHT22;667;48.796;9.480;2023-05-07T05:01:36;14.80;80.60
1347;DHT22;667;48.796;9.480;2023-05-07T05:04:01;14.90;80.90
1347;DHT22;667;48.796;9.480;2023-05-07T05:06:27;14.80;80.90
1347;DHT22;667;48.796;9.480;2023-05-07T05:08:52;14.90;81.00
1347;DHT22;667;48.796;9.480;2023-05-07T05:11:18;14.90;81.10
1347;DHT22;667;48.796;9.480;2023-05-07T05:13:43;14.90;81.20
1347;DHT22;667;48.796;9.480;2023-05-07T05:16:09;15.00;81.20
1347;DHT22;667;48.796;9.480;2023-05-07T05:18:35;15.00;81.20
1347;DHT22;667;48.796;9.480;2023-05-07T05:21:01;15.00;81.20
1347;DHT22;667;48.796;9.480;2023-05-07T05:23:27;15.00;81.20
1347;DHT22;667;48.796;9.480;2023-05-07T05:25:56;14.90;81.10
1347;DHT22;667;48.796;9.480;2023-05-07T05:28:23;15.00;81.20
1347;DHT22;667;48.796;9.480;2023-05-07T05:30:49;15.10;81.20
1347;DHT22;667;48.796;9.480;2023-05-07T05:33:14;15.10;81.20
1347;DHT22;667;48.796;9.480;2023-05-07T05:35:40;15.10;81.20
1347;DHT22;667;48.796;9.480;2023-05-07T05:38:05;15.20;81.30
1347;DHT22;667;48.796;9.480;2023-05-07T05:40:31;15.20;81.40
1347;DHT22;667;48.796;9.480;2023-05-07T05:42:57;15.20;81.70
1347;DHT22;667;48.796;9.480;2023-05-07T05:45:23;15.30;82.10
1347;DHT22;667;48.796;9.480;2023-05-07T05:47:48;15.30;82.10
1347;DHT22;667;48.796;9.480;2023-05-07T05:50:14;15.40;82.10
1347;DHT22;667;48.796;9.480;2023-05-07T05:52:39;15.50;82.10
1347;DHT22;667;48.796;9.480;2023-05-07T05:55:06;15.60;81.30
1347;DHT22;667;48.796;9.480;2023-05-07T05:57:32;15.60;81.40
1347;DHT22;667;48.796;9.480;2023-05-07T05:59:57;15.70;81.40
1347;DHT22;667;48.796;9.480;2023-05-07T06:02:23;15.70;80.70
1347;DHT22;667;48.796;9.480;2023-05-07T06:04:49;15.80;80.40
1347;DHT22;667;48.796;9.480;2023-05-07T06:07:14;15.90;80.60
1347;DHT22;667;48.796;9.480;2023-05-07T06:09:40;16.00;80.70
1347;DHT22;667;48.796;9.480;2023-05-07T06:12:05;16.10;80.80
1347;DHT22;667;48.796;9.480;2023-05-07T06:14:31;16.20;80.50
1347;DHT22;667;48.796;9.480;2023-05-07T06:16:57;16.40;80.00
1347;DHT22;667;48.796;9.480;2023-05-07T06:19:22;16.50;79.30
1347;DHT22;667;48.796;9.480;2023-05-07T06:21:49;16.60;78.80
1347;DHT22;667;48.796;9.480;2023-05-07T06:24:15;16.60;78.20
1347;DHT22;667;48.796;9.480;2023-05-07T06:26:41;16.70;78.10
1347;DHT22;667;48.796;9.480;2023-05-07T06:29:06;16.80;78.30
1347;DHT22;667;48.796;9.480;2023-05-07T06:31:32;16.90;78.40
1347;DHT22;667;48.796;9.480;2023-05-07T06:33:58;17.00;77.90
1347;DHT22;667;48.796;9.480;2023-05-07T06:36:24;17.00;77.20
1347;DHT22;667;48.796;9.480;2023-05-07T06:38:50;17.10;77.10
1347;DHT22;667;48.796;9.480;2023-05-07T06:41:15;17.10;76.60
1347;DHT22;667;48.796;9.480;2023-05-07T06:43:41;17.20;76.60
1347;DHT22;667;48.796;9.480;2023-05-07T06:46:06;17.20;76.70
1347;DHT22;667;48.796;9.480;2023-05-07T06:48:32;17.20;77.00
1347;DHT22;667;48.796;9.480;2023-05-07T06:50:58;17.30;77.20
1347;DHT22;667;48.796;9.480;2023-05-07T06:53:24;17.30;76.90
1347;DHT22;667;48.796;9.480;2023-05-07T06:55:50;17.30;76.80
1347;DHT22;667;48.796;9.480;2023-05-07T06:58:15;17.40;77.10
1347;DHT22;667;48.796;9.480;2023-05-07T07:00:41;17.50;77.10
1347;DHT22;667;48.796;9.480;2023-05-07T07:03:06;17.50;77.00
1347;DHT22;667;48.796;9.480;2023-05-07T07:05:32;17.60;77.30
1347;DHT22;667;48.796;9.480;2023-05-07T07:07:58;17.70;77.30
1347;DHT22;667;48.796;9.480;2023-05-07T07:10:23;17.90;76.80
1347;DHT22;667;48.796;9.480;2023-05-07T07:12:50;18.00;75.30
1347;DHT22;667;48.796;9.480;2023-05-07T07:15:16;18.10;75.10
1347;DHT22;667;48.796;9.480;2023-05-07T07:17:41;18.20;75.30
1347;DHT22;667;48.796;9.480;2023-05-07T07:20:07;18.40;74.80
1347;DHT22;667;48.796;9.480;2023-05-07T07:22:33;18.50;74.20
1347;DHT22;667;48.796;9.480;2023-05-07T07:24:58;18.60;73.50
1347;DHT22;667;48.796;9.480;2023-05-07T07:27:24;18.70;72.60
1347;DHT22;667;48.796;9.480;2023-05-07T07:29:50;18.80;72.30
1347;DHT22;667;48.796;9.480;2023-05-07T07:32:15;18.90;72.00
1347;DHT22;667;48.796;9.480;2023-05-07T07:34:41;19.00;71.70
1347;DHT22;667;48.796;9.480;2023-05-07T07:37:07;19.10;71.80
1347;DHT22;667;48.796;9.480;2023-05-07T07:39:33;19.20;72.00
1347;DHT22;667;48.796;9.480;2023-05-07T07:41:59;19.40;72.50
1347;DHT22;667;48.796;9.480;2023-05-07T07:44:25;19.50;71.90
1347;DHT22;667;48.796;9.480;2023-05-07T07:46:51;19.60;71.40
1347;DHT22;667;48.796;9.480;2023-05-07T07:49:16;19.80;71.70
1347;DHT22;667;48.796;9.480;2023-05-07T07:51:42;19.90;70.70
1347;DHT22;667;48.796;9.480;2023-05-07T07:54:08;20.00;69.40
1347;DHT22;667;48.796;9.480;2023-05-07T07:56:33;20.20;68.20
1347;DHT22;667;48.796;9.480;2023-05-07T07:58:59;20.30;67.90
1347;DHT22;667;48.796;9.480;2023-05-07T08:01:25;20.40;67.40
1347;DHT22;667;48.796;9.480;2023-05-07T08:03:51;20.60;67.00
1347;DHT22;667;48.796;9.480;2023-05-07T08:06:17;20.70;66.60
1347;DHT22;667;48.796;9.480;2023-05-07T08:08:42;20.90;66.20
1347;DHT22;667;48.796;9.480;2023-05-07T08:11:08;21.00;66.10
1347;DHT22;667;48.796;9.480;2023-05-07T08:13:34;21.20;66.20
1347;DHT22;667;48.796;9.480;2023-05-07T08:16:00;21.30;65.70
1347;DHT22;667;48.796;9.480;2023-05-07T08:18:25;21.40;65.20
1347;DHT22;667;48.796;9.480;2023-05-07T08:20:53;21.60;65.60
1347;DHT22;667;48.796;9.480;2023-05-07T08:23:19;21.70;64.90
1347;DHT22;667;48.796;9.480;2023-05-07T08:25:44;21.80;65.00
1347;DHT22;667;48.796;9.480;2023-05-07T08:28:10;22.00;64.80
1347;DHT22;667;48.796;9.480;2023-05-07T08:30:36;22.10;64.50
1347;DHT22;667;48.796;9.480;2023-05-07T08:33:01;22.30;63.90
1347;DHT22;667;48.796;9.480;2023-05-07T08:35:27;22.40;62.10
1347;DHT22;667;48.796;9.480;2023-05-07T08:37:53;22.60;62.60
1347;DHT22;667;48.796;9.480;2023-05-07T08:40:21;22.60;61.90
1347;DHT22;667;48.796;9.480;2023-05-07T08:42:55;22.70;60.70
1347;DHT22;667;48.796;9.480;2023-05-07T08:45:21;22.90;60.70
1347;DHT22;667;48.796;9.480;2023-05-07T08:47:52;23.00;59.90
1347;DHT22;667;48.796;9.480;2023-05-07T08:50:21;23.10;59.90
1347;DHT22;667;48.796;9.480;2023-05-07T08:52:47;23.20;59.20
1347;DHT22;667;48.796;9.480;2023-05-07T08:55:13;23.30;59.50
1347;DHT22;667;48.796;9.480;2023-05-07T08:57:38;23.40;59.90
1347;DHT22;667;48.796;9.480;2023-05-07T09:00:05;23.50;59.80
1347;DHT22;667;48.796;9.480;2023-05-07T09:02:33;23.70;59.30
1347;DHT22;667;48.796;9.480;2023-05-07T09:04:58;23.80;59.00
1347;DHT22;667;48.796;9.480;2023-05-07T09:07:25;23.80;58.00
1347;DHT22;667;48.796;9.480;2023-05-07T09:09:51;23.90;58.30
1347;DHT22;667;48.796;9.480;2023-05-07T09:12:18;23.90;58.80
1347;DHT22;667;48.796;9.480;2023-05-07T09:14:45;23.90;59.00
1347;DHT22;667;48.796;9.480;2023-05-07T09:17:11;23.90;58.10
1347;DHT22;667;48.796;9.480;2023-05-07T09:19:36;24.00;57.40
1347;DHT22;667;48.796;9.480;2023-05-07T09:22:05;24.10;57.20
1347;DHT22;667;48.796;9.480;2023-05-07T09:24:32;24.20;56.90
1347;DHT22;667;48.796;9.480;2023-05-07T09:27:04;24.30;56.90
1347;DHT22;667;48.796;9.480;2023-05-07T09:29:30;24.40;56.40
1347;DHT22;667;48.796;9.480;2023-05-07T09:32:01;24.50;56.20
1347;DHT22;667;48.796;9.480;2023-05-07T09:34:28;24.60;56.70
1347;DHT22;667;48.796;9.480;2023-05-07T09:36:53;24.80;56.60
1347;DHT22;667;48.796;9.480;2023-05-07T09:39:19;24.90;55.50
1347;DHT22;667;48.796;9.480;2023-05-07T09:41:46;25.00;56.10
1347;DHT22;667;48.796;9.480;2023-05-07T09:44:13;25.10;55.50
1347;DHT22;667;48.796;9.480;2023-05-07T09:46:42;25.30;54.90
1347;DHT22;667;48.796;9.480;2023-05-07T09:49:12;25.40;54.20
1347;DHT22;667;48.796;9.480;2023-05-07T09:51:48;25.40;53.40
1347;DHT22;667;48.796;9.480;2023-05-07T09:54:15;25.50;52.80
1347;DHT22;667;48.796;9.480;2023-05-07T09:56:43;25.60;52.30
1347;DHT22;667;48.796;9.480;2023-05-07T09:59:12;25.50;52.40
1347;DHT22;667;48.796;9.480;2023-05-07T10:01:38;25.50;53.40
1347;DHT22;667;48.796;9.480;2023-05-07T10:04:05;25.50;53.10
1347;DHT22;667;48.796;9.480;2023-05-07T10:06:34;25.60;52.90
1347;DHT22;667;48.796;9.480;2023-05-07T10:09:00;25.60;51.70
1347;DHT22;667;48.796;9.480;2023-05-07T10:11:26;25.50;51.50
1347;DHT22;667;48.796;9.480;2023-05-07T10:13:52;25.40;51.30
1347;DHT22;667;48.796;9.480;2023-05-07T10:16:18;25.40;52.50
1347;DHT22;667;48.796;9.480;2023-05-07T10:18:45;25.50;52.40
1347;DHT22;667;48.796;9.480;2023-05-07T10:21:16;25.60;52.00
1347;DHT22;667;48.796;9.480;2023-05-07T10:23:51;25.70;50.80
1347;DHT22;667;48.796;9.480;2023-05-07T10:26:21;25.70;50.40
1347;DHT22;667;48.796;9.480;2023-05-07T10:28:50;25.70;51.30
1347;DHT22;667;48.796;9.480;2023-05-07T10:32:09;25.70;51.10
1347;DHT22;667;48.796;9.480;2023-05-07T10:34:42;25.70;51.10
1347;DHT22;667;48.796;9.480;2023-05-07T10:37:09;25.60;52.00
1347;DHT22;667;48.796;9.480;2023-05-07T10:39:36;25.60;51.70
1347;DHT22;667;48.796;9.480;2023-05-07T10:42:12;25.60;51.10
1347;DHT22;667;48.796;9.480;2023-05-07T10:44:38;25.70;51.50
1347;DHT22;667;48.796;9.480;2023-05-07T10:47:12;25.80;51.70
1347;DHT22;667;48.796;9.480;2023-05-07T10:52:12;25.90;50.80
1347;DHT22;667;48.796;9.480;2023-05-07T10:54:44;25.80;50.10
1347;DHT22;667;48.796;9.480;2023-05-07T10:59:57;26.00;49.70
1347;DHT22;667;48.796;9.480;2023-05-07T11:02:22;25.90;50.20
1347;DHT22;667;48.796;9.480;2023-05-07T11:05:20;25.90;49.90
1347;DHT22;667;48.796;9.480;2023-05-07T11:08:03;25.80;49.70
1347;DHT22;667;48.796;9.480;2023-05-07T11:13:14;25.70;50.30
1347;DHT22;667;48.796;9.480;2023-05-07T11:15:49;25.70;49.70
1347;DHT22;667;48.796;9.480;2023-05-07T11:18:16;25.70;49.60
1347;DHT22;667;48.796;9.480;2023-05-07T11:20:52;25.70;50.20
1347;DHT22;667;48.796;9.480;2023-05-07T11:26:07;25.70;50.00
1347;DHT22;667;48.796;9.480;2023-05-07T11:28:42;25.70;50.40
1347;DHT22;667;48.796;9.480;2023-05-07T11:31:09;25.70;49.50
1347;DHT22;667;48.796;9.480;2023-05-07T11:33:36;25.70;49.50
1347;DHT22;667;48.796;9.480;2023-05-07T11:36:05;25.70;49.30
1347;DHT22;667;48.796;9.480;2023-05-07T11:38:35;25.70;49.20
1347;DHT22;667;48.796;9.480;2023-05-07T11:41:01;25.70;49.30
1347;DHT22;667;48.796;9.480;2023-05-07T11:43:28;25.70;49.20
1347;DHT22;667;48.796;9.480;2023-05-07T11:45:53;25.70;49.30
1347;DHT22;667;48.796;9.480;2023-05-07T11:48:21;25.60;48.90
1347;DHT22;667;48.796;9.480;2023-05-07T11:51:00;25.60;49.50
1347;DHT22;667;48.796;9.480;2023-05-07T11:53:26;25.60;49.00
1347;DHT22;667;48.796;9.480;2023-05-07T11:55:55;25.70;48.40
1347;DHT22;667;48.796;9.480;2023-05-07T11:58:23;25.70;48.30
1347;DHT22;667;48.796;9.480;2023-05-07T12:00:53;25.70;48.70
1347;DHT22;667;48.796;9.480;2023-05-07T12:03:19;25.70;48.20
1347;DHT22;667;48.796;9.480;2023-05-07T12:05:46;25.70;48.30
1347;DHT22;667;48.796;9.480;2023-05-07T12:08:18;25.70;48.60
1347;DHT22;667;48.796;9.480;2023-05-07T12:10:45;25.70;47.60
1347;DHT22;667;48.796;9.480;2023-05-07T12:15:42;25.60;47.20
1347;DHT22;667;48.796;9.480;2023-05-07T12:18:08;25.60;47.60
1347;DHT22;667;48.796;9.480;2023-05-07T12:20:35;25.60;48.00
1347;DHT22;667;48.796;9.480;2023-05-07T12:23:02;25.50;48.40
1347;DHT22;667;48.796;9.480;2023-05-07T12:25:30;25.50;47.90
1347;DHT22;667;48.796;9.480;2023-05-07T12:27:56;25.40;47.10
1347;DHT22;667;48.796;9.480;2023-05-07T12:30:24;25.40;47.50
1347;DHT22;667;48.796;9.480;2023-05-07T12:32:55;25.40;47.60
1347;DHT22;667;48.796;9.480;2023-05-07T12:35:31;25.30;47.80
1347;DHT22;667;48.796;9.480;2023-05-07T12:37:58;25.30;47.70
1347;DHT22;667;48.796;9.480;2023-05-07T12:40:38;25.20;47.80
1347;DHT22;667;48.796;9.480;2023-05-07T12:43:04;25.10;48.20
1347;DHT22;667;48.796;9.480;2023-05-07T12:45:29;25.10;48.50
1347;DHT22;667;48.796;9.480;2023-05-07T12:47:56;25.10;48.40
1347;DHT22;667;48.796;9.480;2023-05-07T12:50:22;25.00;49.30
1347;DHT22;667;48.796;9.480;2023-05-07T12:52:48;25.00;48.90
1347;DHT22;667;48.796;9.480;2023-05-07T12:55:15;24.90;48.90
1347;DHT22;667;48.796;9.480;2023-05-07T12:58:01;24.90;48.80
1347;DHT22;667;48.796;9.480;2023-05-07T13:00:38;24.80;49.50
1347;DHT22;667;48.796;9.480;2023-05-07T13:03:04;24.70;48.90
1347;DHT22;667;48.796;9.480;2023-05-07T13:05:30;24.70;49.10
1347;DHT22;667;48.796;9.480;2023-05-07T13:07:56;24.60;49.50
1347;DHT22;667;48.796;9.480;2023-05-07T13:10:23;24.60;50.30
1347;DHT22;667;48.796;9.480;2023-05-07T13:12:49;24.50;50.20
1347;DHT22;667;48.796;9.480;2023-05-07T13:15:15;24.40;51.80
1347;DHT22;667;48.796;9.480;2023-05-07T13:17:41;24.40;51.70
1347;DHT22;667;48.796;9.480;2023-05-07T13:20:08;24.30;52.10
1347;DHT22;667;48.796;9.480;2023-05-07T13:22:34;24.20;52.30
1347;DHT22;667;48.796;9.480;2023-05-07T13:25:00;24.10;52.20
1347;DHT22;667;48.796;9.480;2023-05-07T13:27:25;24.00;52.20
1347;DHT22;667;48.796;9.480;2023-05-07T13:29:51;24.00;52.40
1347;DHT22;667;48.796;9.480;2023-05-07T13:32:17;23.90;52.60
1347;DHT22;667;48.796;9.480;2023-05-07T13:34:42;23.80;52.90
1347;DHT22;667;48.796;9.480;2023-05-07T13:37:08;23.70;53.20
1347;DHT22;667;48.796;9.480;2023-05-07T13:39:34;23.70;54.60
1347;DHT22;667;48.796;9.480;2023-05-07T13:41:59;23.60;55.90
1347;DHT22;667;48.796;9.480;2023-05-07T13:44:25;23.50;56.30
1347;DHT22;667;48.796;9.480;2023-05-07T13:46:51;23.40;56.40
1347;DHT22;667;48.796;9.480;2023-05-07T13:49:16;23.20;56.50
1347;DHT22;667;48.796;9.480;2023-05-07T13:51:42;23.10;56.60
1347;DHT22;667;48.796;9.480;2023-05-07T13:54:07;23.00;56.30
1347;DHT22;667;48.796;9.480;2023-05-07T13:56:33;23.00;56.20
1347;DHT22;667;48.796;9.480;2023-05-07T13:58:59;22.90;56.80
1347;DHT22;667;48.796;9.480;2023-05-07T14:01:24;22.80;57.40
1347;DHT22;667;48.796;9.480;2023-05-07T14:03:50;22.70;57.70
1347;DHT22;667;48.796;9.480;2023-05-07T14:06:16;22.70;58.20
1347;DHT22;667;48.796;9.480;2023-05-07T14:08:41;22.60;58.50
1347;DHT22;667;48.796;9.480;2023-05-07T14:11:07;22.50;58.50
1347;DHT22;667;48.796;9.480;2023-05-07T14:13:32;22.50;58.90
1347;DHT22;667;48.796;9.480;2023-05-07T14:15:59;22.40;59.10
1347;DHT22;667;48.796;9.480;2023-05-07T14:18:26;22.40;59.10
1347;DHT22;667;48.796;9.480;2023-05-07T14:20:51;22.40;59.40
1347;DHT22;667;48.796;9.480;2023-05-07T14:23:17;22.30;59.80
1347;DHT22;667;48.796;9.480;2023-05-07T14:25:44;22.30;59.70
1347;DHT22;667;48.796;9.480;2023-05-07T14:28:11;22.20;59.90
1347;DHT22;667;48.796;9.480;2023-05-07T14:30:37;22.20;59.90
1347;DHT22;667;48.796;9.480;2023-05-07T14:33:02;22.10;58.70
1347;DHT22;667;48.796;9.480;2023-05-07T14:35:30;22.10;58.50
1347;DHT22;667;48.796;9.480;2023-05-07T14:37:55;22.00;58.90
1347;DHT22;667;48.796;9.480;2023-05-07T14:40:21;21.90;59.30
1347;DHT22;667;48.796;9.480;2023-05-07T14:42:47;21.80;59.50
1347;DHT22;667;48.796;9.480;2023-05-07T14:45:12;21.70;59.70
1347;DHT22;667;48.796;9.480;2023-05-07T14:47:38;21.60;60.40
1347;DHT22;667;48.796;9.480;2023-05-07T14:50:04;21.50;61.70
1347;DHT22;667;48.796;9.480;2023-05-07T14:52:29;21.50;62.70
1347;DHT22;667;48.796;9.480;2023-05-07T14:54:55;21.50;63.30
1347;DHT22;667;48.796;9.480;2023-05-07T14:57:21;21.40;63.70
1347;DHT22;667;48.796;9.480;2023-05-07T15:02:17;21.40;64.60
1347;DHT22;667;48.796;9.480;2023-05-07T15:04:43;21.30;65.10
1347;DHT22;667;48.796;9.480;2023-05-07T15:07:13;21.30;65.30
1347;DHT22;667;48.796;9.480;2023-05-07T15:09:42;21.30;65.20
1347;DHT22;667;48.796;9.480;2023-05-07T15:12:08;21.20;65.50
1347;DHT22;667;48.796;9.480;2023-05-07T15:14:34;21.20;66.10
1347;DHT22;667;48.796;9.480;2023-05-07T15:17:00;21.20;66.50
1347;DHT22;667;48.796;9.480;2023-05-07T15:19:25;21.20;66.80
1347;DHT22;667;48.796;9.480;2023-05-07T15:21:55;21.10;66.90
1347;DHT22;667;48.796;9.480;2023-05-07T15:24:22;21.10;67.30
1347;DHT22;667;48.796;9.480;2023-05-07T15:26:48;21.10;67.70
1347;DHT22;667;48.796;9.480;2023-05-07T15:29:13;21.10;67.40
1347;DHT22;667;48.796;9.480;2023-05-07T15:31:39;21.00;67.50
1347;DHT22;667;48.796;9.480;2023-05-07T15:34:05;21.00;67.10
1347;DHT22;667;48.796;9.480;2023-05-07T15:36:30;21.00;67.30
1347;DHT22;667;48.796;9.480;2023-05-07T15:38:57;20.90;67.70
1347;DHT22;667;48.796;9.480;2023-05-07T15:41:22;20.90;68.60
1347;DHT22;667;48.796;9.480;2023-05-07T15:43:50;20.90;69.20
1347;DHT22;667;48.796;9.480;2023-05-07T15:46:21;20.90;70.50
1347;DHT22;667;48.796;9.480;2023-05-07T15:48:49;20.80;71.40
1347;DHT22;667;48.796;9.480;2023-05-07T15:51:15;20.80;72.60
1347;DHT22;667;48.796;9.480;2023-05-07T15:53:42;20.70;73.10
1347;DHT22;667;48.796;9.480;2023-05-07T15:56:08;20.70;73.50
1347;DHT22;667;48.796;9.480;2023-05-07T15:58:34;20.60;73.40
1347;DHT22;667;48.796;9.480;2023-05-07T16:01:00;20.50;74.00
1347;DHT22;667;48.796;9.480;2023-05-07T16:03:27;20.50;74.80
1347;DHT22;667;48.796;9.480;2023-05-07T16:05:53;20.50;74.90
1347;DHT22;667;48.796;9.480;2023-05-07T16:08:19;20.40;75.60
1347;DHT22;667;48.796;9.480;2023-05-07T16:10:44;20.40;76.70
1347;DHT22;667;48.796;9.480;2023-05-07T16:13:10;20.30;77.20
1347;DHT22;667;48.796;9.480;2023-05-07T16:15:35;20.20;77.30
1347;DHT22;667;48.796;9.480;2023-05-07T16:18:01;20.20;77.50
1347;DHT22;667;48.796;9.480;2023-05-07T16:20:28;20.10;77.80
1347;DHT22;667;48.796;9.480;2023-05-07T16:22:57;20.10;78.40
1347;DHT22;667;48.796;9.480;2023-05-07T16:25:23;20.10;78.40
1347;DHT22;667;48.796;9.480;2023-05-07T16:27:49;20.10;78.70
1347;DHT22;667;48.796;9.480;2023-05-07T16:30:15;20.10;79.10